sensor_id;sensor_type;location;lat;lon;timestamp;P1;durP1;ratioP1;P2;durP2;ratioP2
21170;SDS011;10743;52.160;20.910;2023-03-23T00:01:56;223.07;;;72.17;;
21170;SDS011;10743;52.160;20.910;2023-03-23T00:04:22;220.00;;;71.77;;
21170;SDS011;10743;52.160;20.910;2023-03-23T00:06:51;226.47;;;73.90;;
21170;SDS011;10743;52.160;20.910;2023-03-23T00:09:17;220.27;;;71.30;;
21170;SDS011;10743;52.160;20.910;2023-03-23T00:11:48;227.00;;;71.50;;
21170;SDS011;10743;52.160;20.910;2023-03-23T00:14:15;225.50;;;72.03;;
21170;SDS011;10743;52.160;20.910;2023-03-23T00:16:47;222.73;;;71.90;;
21170;SDS011;10743;52.160;20.910;2023-03-23T00:19:15;221.27;;;71.57;;
21170;SDS011;10743;52.160;20.910;2023-03-23T00:21:44;224.67;;;73.00;;
21170;SDS011;10743;52.160;20.910;2023-03-23T00:24:11;221.00;;;72.03;;
21170;SDS011;10743;52.160;20.910;2023-03-23T00:26:47;224.70;;;71.97;;
21170;SDS011;10743;52.160;20.910;2023-03-23T00:29:18;222.67;;;70.97;;
21170;SDS011;10743;52.160;20.910;2023-03-23T00:31:49;226.70;;;71.13;;
21170;SDS011;10743;52.160;20.910;2023-03-23T00:34:17;222.53;;;70.57;;
21170;SDS011;10743;52.160;20.910;2023-03-23T00:36:46;225.70;;;72.60;;
21170;SDS011;10743;52.160;20.910;2023-03-23T00:39:15;224.60;;;73.20;;
21170;SDS011;10743;52.160;20.910;2023-03-23T00:41:43;223.30;;;72.20;;
21170;SDS011;10743;52.160;20.910;2023-03-23T00:44:09;224.33;;;72.83;;
21170;SDS011;10743;52.160;20.910;2023-03-23T00:46:45;230.67;;;71.87;;
21170;SDS011;10743;52.160;20.910;2023-03-23T00:49:17;228.97;;;75.17;;
21170;SDS011;10743;52.160;20.910;2023-03-23T00:51:50;222.77;;;71.27;;
21170;SDS011;10743;52.160;20.910;2023-03-23T00:54:18;221.57;;;71.10;;
21170;SDS011;10743;52.160;20.910;2023-03-23T00:56:47;229.20;;;72.83;;
21170;SDS011;10743;52.160;20.910;2023-03-23T00:59:13;225.30;;;73.67;;
21170;SDS011;10743;52.160;20.910;2023-03-23T01:01:39;235.17;;;74.00;;
21170;SDS011;10743;52.160;20.910;2023-03-23T01:04:06;223.47;;;71.77;;
21170;SDS011;10743;52.160;20.910;2023-03-23T01:06:36;236.43;;;74.37;;
21170;SDS011;10743;52.160;20.910;2023-03-23T01:09:09;232.53;;;76.07;;
21170;SDS011;10743;52.160;20.910;2023-03-23T01:11:42;237.27;;;76.47;;
21170;SDS011;10743;52.160;20.910;2023-03-23T01:14:09;233.53;;;77.50;;
21170;SDS011;10743;52.160;20.910;2023-03-23T01:16:37;230.67;;;76.13;;
21170;SDS011;10743;52.160;20.910;2023-03-23T01:19:03;218.97;;;74.53;;
21170;SDS011;10743;52.160;20.910;2023-03-23T01:21:30;234.07;;;76.70;;
21170;SDS011;10743;52.160;20.910;2023-03-23T01:23:56;228.03;;;76.53;;
21170;SDS011;10743;52.160;20.910;2023-03-23T01:26:24;229.67;;;75.60;;
21170;SDS011;10743;52.160;20.910;2023-03-23T01:28:52;223.40;;;73.00;;
21170;SDS011;10743;52.160;20.910;2023-03-23T01:31:19;221.37;;;70.33;;
21170;SDS011;10743;52.160;20.910;2023-03-23T01:33:49;222.60;;;69.77;;
21170;SDS011;10743;52.160;20.910;2023-03-23T01:36:18;220.73;;;70.33;;
21170;SDS011;10743;52.160;20.910;2023-03-23T01:38:53;213.23;;;68.10;;
21170;SDS011;10743;52.160;20.910;2023-03-23T01:41:19;213.17;;;67.73;;
21170;SDS011;10743;52.160;20.910;2023-03-23T01:47:03;216.20;;;67.20;;
21170;SDS011;10743;52.160;20.910;2023-03-23T01:49:34;223.13;;;68.93;;
21170;SDS011;10743;52.160;20.910;2023-03-23T01:52:05;213.53;;;67.30;;
21170;SDS011;10743;52.160;20.910;2023-03-23T01:54:43;210.23;;;66.50;;
21170;SDS011;10743;52.160;20.910;2023-03-23T01:57:12;217.97;;;67.27;;
21170;SDS011;10743;52.160;20.910;2023-03-23T01:59:45;212.27;;;66.77;;
21170;SDS011;10743;52.160;20.910;2023-03-23T02:02:21;213.30;;;67.23;;
21170;SDS011;10743;52.160;20.910;2023-03-23T02:04:50;216.83;;;66.80;;
21170;SDS011;10743;52.160;20.910;2023-03-23T02:07:21;215.73;;;67.50;;
21170;SDS011;10743;52.160;20.910;2023-03-23T02:09:50;215.03;;;66.80;;
21170;SDS011;10743;52.160;20.910;2023-03-23T02:12:17;211.63;;;65.53;;
21170;SDS011;10743;52.160;20.910;2023-03-23T02:14:45;219.23;;;67.53;;
21170;SDS011;10743;52.160;20.910;2023-03-23T02:17:15;218.77;;;66.30;;
21170;SDS011;10743;52.160;20.910;2023-03-23T02:41:17;207.93;;;70.83;;
21170;SDS011;10743;52.160;20.910;2023-03-23T02:43:48;205.60;;;71.30;;
21170;SDS011;10743;52.160;20.910;2023-03-23T02:46:15;213.63;;;65.77;;
21170;SDS011;10743;52.160;20.910;2023-03-23T02:48:43;206.30;;;63.93;;
21170;SDS011;10743;52.160;20.910;2023-03-23T02:51:14;210.67;;;65.20;;
21170;SDS011;10743;52.160;20.910;2023-03-23T02:53:42;204.67;;;64.70;;
21170;SDS011;10743;52.160;20.910;2023-03-23T02:56:09;214.27;;;66.73;;
21170;SDS011;10743;52.160;20.910;2023-03-23T02:58:37;210.33;;;76.53;;
21170;SDS011;10743;52.160;20.910;2023-03-23T03:01:14;186.30;;;67.37;;
21170;SDS011;10743;52.160;20.910;2023-03-23T03:03:50;206.07;;;78.27;;
21170;SDS011;10743;52.160;20.910;2023-03-23T03:06:30;167.63;;;70.43;;
21170;SDS011;10743;52.160;20.910;2023-03-23T03:12:26;208.27;;;75.93;;
21170;SDS011;10743;52.160;20.910;2023-03-23T03:17:54;196.33;;;69.03;;
21170;SDS011;10743;52.160;20.910;2023-03-23T03:20:31;203.83;;;70.07;;
21170;SDS011;10743;52.160;20.910;2023-03-23T03:23:01;206.13;;;73.83;;
21170;SDS011;10743;52.160;20.910;2023-03-23T03:25:30;201.60;;;65.10;;
21170;SDS011;10743;52.160;20.910;2023-03-23T03:27:57;206.57;;;66.57;;
21170;SDS011;10743;52.160;20.910;2023-03-23T03:30:38;197.60;;;71.70;;
21170;SDS011;10743;52.160;20.910;2023-03-23T03:33:05;201.03;;;75.30;;
21170;SDS011;10743;52.160;20.910;2023-03-23T03:35:31;203.43;;;91.83;;
21170;SDS011;10743;52.160;20.910;2023-03-23T03:38:07;196.67;;;87.13;;
21170;SDS011;10743;52.160;20.910;2023-03-23T03:40:34;207.87;;;83.03;;
21170;SDS011;10743;52.160;20.910;2023-03-23T03:43:00;197.53;;;85.87;;
21170;SDS011;10743;52.160;20.910;2023-03-23T03:45:27;195.37;;;76.43;;
21170;SDS011;10743;52.160;20.910;2023-03-23T03:47:54;193.77;;;73.83;;
21170;SDS011;10743;52.160;20.910;2023-03-23T03:50:21;203.73;;;79.33;;
21170;SDS011;10743;52.160;20.910;2023-03-23T03:52:47;215.17;;;80.97;;
21170;SDS011;10743;52.160;20.910;2023-03-23T03:55:13;199.90;;;85.67;;
21170;SDS011;10743;52.160;20.910;2023-03-23T03:57:43;225.80;;;108.03;;
21170;SDS011;10743;52.160;20.910;2023-03-23T04:00:44;205.43;;;72.93;;
21170;SDS011;10743;52.160;20.910;2023-03-23T04:03:17;246.10;;;91.30;;
21170;SDS011;10743;52.160;20.910;2023-03-23T04:05:55;221.10;;;86.00;;
21170;SDS011;10743;52.160;20.910;2023-03-23T04:08:22;170.40;;;69.97;;
21170;SDS011;10743;52.160;20.910;2023-03-23T04:10:49;246.83;;;85.97;;
21170;SDS011;10743;52.160;20.910;2023-03-23T04:13:16;230.03;;;79.60;;
21170;SDS011;10743;52.160;20.910;2023-03-23T04:16:02;236.53;;;76.83;;
21170;SDS011;10743;52.160;20.910;2023-03-23T04:18:31;228.30;;;73.47;;
21170;SDS011;10743;52.160;20.910;2023-03-23T04:20:59;210.47;;;68.70;;
21170;SDS011;10743;52.160;20.910;2023-03-23T04:23:27;201.90;;;66.10;;
21170;SDS011;10743;52.160;20.910;2023-03-23T04:26:00;204.70;;;65.03;;
21170;SDS011;10743;52.160;20.910;2023-03-23T04:28:34;201.23;;;65.80;;
21170;SDS011;10743;52.160;20.910;2023-03-23T04:31:23;198.33;;;65.50;;
21170;SDS011;10743;52.160;20.910;2023-03-23T04:33:53;182.10;;;62.53;;
21170;SDS011;10743;52.160;20.910;2023-03-23T04:36:21;169.83;;;61.27;;
21170;SDS011;10743;52.160;20.910;2023-03-23T04:38:56;182.80;;;61.77;;
21170;SDS011;10743;52.160;20.910;2023-03-23T04:41:23;190.90;;;63.17;;
21170;SDS011;10743;52.160;20.910;2023-03-23T04:44:10;192.87;;;63.03;;
21170;SDS011;10743;52.160;20.910;2023-03-23T04:46:44;203.97;;;64.20;;
21170;SDS011;10743;52.160;20.910;2023-03-23T04:49:15;203.70;;;63.97;;
21170;SDS011;10743;52.160;20.910;2023-03-23T04:51:48;205.27;;;63.37;;
21170;SDS011;10743;52.160;20.910;2023-03-23T04:54:30;198.00;;;62.87;;
21170;SDS011;10743;52.160;20.910;2023-03-23T04:56:59;207.37;;;63.17;;
21170;SDS011;10743;52.160;20.910;2023-03-23T04:59:26;207.50;;;64.27;;
21170;SDS011;10743;52.160;20.910;2023-03-23T05:02:25;209.60;;;63.70;;
21170;SDS011;10743;52.160;20.910;2023-03-23T05:04:56;204.23;;;64.13;;
21170;SDS011;10743;52.160;20.910;2023-03-23T05:07:25;206.07;;;63.17;;
21170;SDS011;10743;52.160;20.910;2023-03-23T05:09:53;205.90;;;64.17;;
21170;SDS011;10743;52.160;20.910;2023-03-23T05:12:23;208.17;;;63.77;;
21170;SDS011;10743;52.160;20.910;2023-03-23T05:15:09;211.80;;;64.50;;
21170;SDS011;10743;52.160;20.910;2023-03-23T05:17:37;206.47;;;64.20;;
21170;SDS011;10743;52.160;20.910;2023-03-23T05:20:13;204.20;;;64.30;;
21170;SDS011;10743;52.160;20.910;2023-03-23T05:22:49;217.47;;;65.53;;
21170;SDS011;10743;52.160;20.910;2023-03-23T05:25:21;200.40;;;63.57;;
21170;SDS011;10743;52.160;20.910;2023-03-23T05:28:04;182.67;;;62.67;;
21170;SDS011;10743;52.160;20.910;2023-03-23T05:30:48;196.30;;;63.27;;
21170;SDS011;10743;52.160;20.910;2023-03-23T05:33:16;187.93;;;62.97;;
21170;SDS011;10743;52.160;20.910;2023-03-23T05:35:48;194.43;;;63.20;;
21170;SDS011;10743;52.160;20.910;2023-03-23T05:38:19;188.63;;;63.27;;
21170;SDS011;10743;52.160;20.910;2023-03-23T05:40:47;193.37;;;62.53;;
21170;SDS011;10743;52.160;20.910;2023-03-23T05:43:16;188.57;;;62.57;;
21170;SDS011;10743;52.160;20.910;2023-03-23T05:46:05;177.73;;;63.70;;
21170;SDS011;10743;52.160;20.910;2023-03-23T05:48:33;204.27;;;67.10;;
21170;SDS011;10743;52.160;20.910;2023-03-23T05:51:00;195.93;;;65.97;;
21170;SDS011;10743;52.160;20.910;2023-03-23T05:53:28;183.70;;;63.10;;
21170;SDS011;10743;52.160;20.910;2023-03-23T05:56:00;158.67;;;58.13;;
21170;SDS011;10743;52.160;20.910;2023-03-23T05:58:44;145.82;;;56.60;;
21170;SDS011;10743;52.160;20.910;2023-03-23T06:01:10;167.23;;;79.33;;
21170;SDS011;10743;52.160;20.910;2023-03-23T06:03:39;169.27;;;60.60;;
21170;SDS011;10743;52.160;20.910;2023-03-23T06:06:16;150.77;;;57.20;;
21170;SDS011;10743;52.160;20.910;2023-03-23T06:08:52;193.30;;;63.03;;
21170;SDS011;10743;52.160;20.910;2023-03-23T06:11:28;186.60;;;63.03;;
21170;SDS011;10743;52.160;20.910;2023-03-23T06:14:13;165.47;;;60.40;;
21170;SDS011;10743;52.160;20.910;2023-03-23T06:16:39;187.37;;;62.27;;
21170;SDS011;10743;52.160;20.910;2023-03-23T06:19:09;170.80;;;60.80;;
21170;SDS011;10743;52.160;20.910;2023-03-23T06:21:42;173.67;;;61.80;;
21170;SDS011;10743;52.160;20.910;2023-03-23T06:24:20;171.43;;;61.13;;
21170;SDS011;10743;52.160;20.910;2023-03-23T06:26:47;152.98;;;57.85;;
21170;SDS011;10743;52.160;20.910;2023-03-23T06:29:18;128.43;;;53.03;;
21170;SDS011;10743;52.160;20.910;2023-03-23T06:31:49;172.77;;;59.97;;
21170;SDS011;10743;52.160;20.910;2023-03-23T06:34:22;160.63;;;58.20;;
21170;SDS011;10743;52.160;20.910;2023-03-23T06:37:07;175.50;;;71.93;;
21170;SDS011;10743;52.160;20.910;2023-03-23T06:39:38;188.10;;;62.10;;
21170;SDS011;10743;52.160;20.910;2023-03-23T06:42:15;163.20;;;59.03;;
21170;SDS011;10743;52.160;20.910;2023-03-23T06:44:47;189.43;;;62.55;;
21170;SDS011;10743;52.160;20.910;2023-03-23T06:47:14;180.38;;;60.50;;
21170;SDS011;10743;52.160;20.910;2023-03-23T06:49:45;179.10;;;62.87;;
21170;SDS011;10743;52.160;20.910;2023-03-23T06:52:24;179.83;;;62.07;;
21170;SDS011;10743;52.160;20.910;2023-03-23T06:54:52;206.77;;;64.23;;
21170;SDS011;10743;52.160;20.910;2023-03-23T06:57:19;185.70;;;61.10;;
21170;SDS011;10743;52.160;20.910;2023-03-23T06:59:47;188.23;;;60.85;;
21170;SDS011;10743;52.160;20.910;2023-03-23T07:02:14;203.77;;;63.92;;
21170;SDS011;10743;52.160;20.910;2023-03-23T07:04:42;213.87;;;63.90;;
21170;SDS011;10743;52.160;20.910;2023-03-23T07:07:14;214.13;;;63.15;;
21170;SDS011;10743;52.160;20.910;2023-03-23T07:10:07;212.13;;;63.17;;
21170;SDS011;10743;52.160;20.910;2023-03-23T07:12:35;213.70;;;64.53;;
21170;SDS011;10743;52.160;20.910;2023-03-23T07:15:05;214.30;;;64.57;;
21170;SDS011;10743;52.160;20.910;2023-03-23T07:17:35;215.20;;;63.20;;
21170;SDS011;10743;52.160;20.910;2023-03-23T07:20:12;209.07;;;62.87;;
21170;SDS011;10743;52.160;20.910;2023-03-23T07:22:38;210.27;;;62.47;;
21170;SDS011;10743;52.160;20.910;2023-03-23T07:25:14;209.73;;;63.20;;
21170;SDS011;10743;52.160;20.910;2023-03-23T07:27:49;210.00;;;63.58;;
21170;SDS011;10743;52.160;20.910;2023-03-23T07:30:16;210.03;;;63.40;;
21170;SDS011;10743;52.160;20.910;2023-03-23T07:32:43;206.32;;;64.07;;
21170;SDS011;10743;52.160;20.910;2023-03-23T07:35:09;207.50;;;64.15;;
21170;SDS011;10743;52.160;20.910;2023-03-23T07:37:50;206.43;;;63.92;;
21170;SDS011;10743;52.160;20.910;2023-03-23T07:40:18;209.60;;;63.13;;
21170;SDS011;10743;52.160;20.910;2023-03-23T07:42:51;205.75;;;62.78;;
21170;SDS011;10743;52.160;20.910;2023-03-23T07:45:29;210.32;;;63.55;;
21170;SDS011;10743;52.160;20.910;2023-03-23T07:47:56;207.18;;;62.17;;
21170;SDS011;10743;52.160;20.910;2023-03-23T07:50:23;194.02;;;61.85;;
21170;SDS011;10743;52.160;20.910;2023-03-23T07:52:55;198.30;;;62.30;;
21170;SDS011;10743;52.160;20.910;2023-03-23T07:55:24;188.60;;;65.57;;
21170;SDS011;10743;52.160;20.910;2023-03-23T07:58:30;150.68;;;58.90;;
21170;SDS011;10743;52.160;20.910;2023-03-23T08:00:57;200.85;;;64.70;;
21170;SDS011;10743;52.160;20.910;2023-03-23T08:03:27;217.35;;;66.38;;
21170;SDS011;10743;52.160;20.910;2023-03-23T08:06:09;212.60;;;63.78;;
21170;SDS011;10743;52.160;20.910;2023-03-23T08:08:47;210.53;;;63.17;;
21170;SDS011;10743;52.160;20.910;2023-03-23T08:11:31;210.60;;;63.45;;
21170;SDS011;10743;52.160;20.910;2023-03-23T08:14:16;204.43;;;63.15;;
21170;SDS011;10743;52.160;20.910;2023-03-23T08:17:12;214.43;;;64.22;;
21170;SDS011;10743;52.160;20.910;2023-03-23T08:20:01;210.45;;;62.22;;
21170;SDS011;10743;52.160;20.910;2023-03-23T08:22:51;208.25;;;62.55;;
21170;SDS011;10743;52.160;20.910;2023-03-23T08:25:38;216.85;;;63.55;;
21170;SDS011;10743;52.160;20.910;2023-03-23T08:28:25;210.45;;;61.95;;
21170;SDS011;10743;52.160;20.910;2023-03-23T08:31:14;213.43;;;62.43;;
21170;SDS011;10743;52.160;20.910;2023-03-23T08:34:02;216.00;;;62.70;;
21170;SDS011;10743;52.160;20.910;2023-03-23T08:37:02;207.48;;;61.85;;
21170;SDS011;10743;52.160;20.910;2023-03-23T08:39:50;213.40;;;64.13;;
21170;SDS011;10743;52.160;20.910;2023-03-23T08:42:41;208.27;;;61.47;;
21170;SDS011;10743;52.160;20.910;2023-03-23T08:45:28;209.65;;;61.22;;
21170;SDS011;10743;52.160;20.910;2023-03-23T08:48:10;212.10;;;60.50;;
21170;SDS011;10743;52.160;20.910;2023-03-23T08:50:39;207.43;;;60.55;;
21170;SDS011;10743;52.160;20.910;2023-03-23T08:53:18;212.73;;;61.25;;
21170;SDS011;10743;52.160;20.910;2023-03-23T08:56:14;212.50;;;61.72;;
21170;SDS011;10743;52.160;20.910;2023-03-23T08:59:03;208.98;;;60.67;;
21170;SDS011;10743;52.160;20.910;2023-03-23T09:01:34;213.45;;;60.95;;
21170;SDS011;10743;52.160;20.910;2023-03-23T09:04:18;207.38;;;60.30;;
21170;SDS011;10743;52.160;20.910;2023-03-23T09:06:52;210.88;;;60.85;;
21170;SDS011;10743;52.160;20.910;2023-03-23T09:09:20;210.38;;;60.85;;
21170;SDS011;10743;52.160;20.910;2023-03-23T09:11:46;211.45;;;61.00;;
21170;SDS011;10743;52.160;20.910;2023-03-23T09:14:12;210.00;;;61.05;;
21170;SDS011;10743;52.160;20.910;2023-03-23T09:16:38;209.68;;;62.30;;
21170;SDS011;10743;52.160;20.910;2023-03-23T09:19:05;212.13;;;61.60;;
21170;SDS011;10743;52.160;20.910;2023-03-23T09:21:34;213.43;;;63.35;;
21170;SDS011;10743;52.160;20.910;2023-03-23T09:24:00;215.23;;;63.80;;
21170;SDS011;10743;52.160;20.910;2023-03-23T09:26:26;213.05;;;69.55;;
21170;SDS011;10743;52.160;20.910;2023-03-23T09:28:53;229.30;;;83.88;;
21170;SDS011;10743;52.160;20.910;2023-03-23T09:31:22;233.98;;;70.90;;
21170;SDS011;10743;52.160;20.910;2023-03-23T09:33:51;225.00;;;66.53;;
21170;SDS011;10743;52.160;20.910;2023-03-23T09:36:21;224.65;;;64.00;;
21170;SDS011;10743;52.160;20.910;2023-03-23T09:38:47;223.93;;;67.20;;
21170;SDS011;10743;52.160;20.910;2023-03-23T09:47:05;230.10;;;72.43;;
21170;SDS011;10743;52.160;20.910;2023-03-23T09:49:53;216.25;;;63.90;;
21170;SDS011;10743;52.160;20.910;2023-03-23T09:52:28;215.73;;;62.42;;
21170;SDS011;10743;52.160;20.910;2023-03-23T09:55:17;222.52;;;63.50;;
21170;SDS011;10743;52.160;20.910;2023-03-23T09:57:51;217.02;;;63.42;;
21170;SDS011;10743;52.160;20.910;2023-03-23T10:00:32;218.25;;;62.72;;
21170;SDS011;10743;52.160;20.910;2023-03-23T10:05:48;215.63;;;62.35;;
21170;SDS011;10743;52.160;20.910;2023-03-23T10:11:09;222.75;;;63.08;;
21170;SDS011;10743;52.160;20.910;2023-03-23T10:13:57;222.90;;;64.00;;
21170;SDS011;10743;52.160;20.910;2023-03-23T10:22:34;222.68;;;63.65;;
21170;SDS011;10743;52.160;20.910;2023-03-23T10:27:47;224.55;;;63.10;;
21170;SDS011;10743;52.160;20.910;2023-03-23T10:30:33;221.82;;;63.80;;
21170;SDS011;10743;52.160;20.910;2023-03-23T10:33:11;225.00;;;63.08;;
21170;SDS011;10743;52.160;20.910;2023-03-23T10:36:07;216.55;;;61.90;;
21170;SDS011;10743;52.160;20.910;2023-03-23T10:38:44;217.70;;;62.30;;
21170;SDS011;10743;52.160;20.910;2023-03-23T10:41:17;221.45;;;62.15;;
21170;SDS011;10743;52.160;20.910;2023-03-23T10:43:45;221.35;;;62.83;;
21170;SDS011;10743;52.160;20.910;2023-03-23T10:49:24;210.57;;;62.83;;
21170;SDS011;10743;52.160;20.910;2023-03-23T10:54:35;228.75;;;64.03;;
21170;SDS011;10743;52.160;20.910;2023-03-23T10:57:12;215.73;;;62.63;;
21170;SDS011;10743;52.160;20.910;2023-03-23T10:59:57;219.05;;;63.58;;
21170;SDS011;10743;52.160;20.910;2023-03-23T11:02:31;217.77;;;63.05;;
21170;SDS011;10743;52.160;20.910;2023-03-23T11:05:06;220.68;;;63.55;;
21170;SDS011;10743;52.160;20.910;2023-03-23T11:07:55;215.90;;;62.60;;
21170;SDS011;10743;52.160;20.910;2023-03-23T11:10:27;221.95;;;65.35;;
21170;SDS011;10743;52.160;20.910;2023-03-23T11:13:02;217.10;;;62.72;;
21170;SDS011;10743;52.160;20.910;2023-03-23T11:15:30;213.75;;;62.70;;
21170;SDS011;10743;52.160;20.910;2023-03-23T11:18:12;221.90;;;64.07;;
21170;SDS011;10743;52.160;20.910;2023-03-23T11:20:50;220.98;;;63.60;;
21170;SDS011;10743;52.160;20.910;2023-03-23T11:31:50;218.90;;;61.55;;
21170;SDS011;10743;52.160;20.910;2023-03-23T11:34:33;163.65;;;59.13;;
21170;SDS011;10743;52.160;20.910;2023-03-23T11:37:08;72.65;;;34.08;;
21170;SDS011;10743;52.160;20.910;2023-03-23T11:42:26;131.60;;;66.25;;
21170;SDS011;10743;52.160;20.910;2023-03-23T11:47:49;192.05;;;80.97;;
21170;SDS011;10743;52.160;20.910;2023-03-23T11:59:37;200.13;;;68.75;;
21170;SDS011;10743;52.160;20.910;2023-03-23T12:11:02;105.68;;;47.65;;
21170;SDS011;10743;52.160;20.910;2023-03-23T12:13:56;206.27;;;78.28;;
21170;SDS011;10743;52.160;20.910;2023-03-23T12:19:08;163.85;;;59.60;;
21170;SDS011;10743;52.160;20.910;2023-03-23T12:27:59;176.55;;;69.78;;
21170;SDS011;10743;52.160;20.910;2023-03-23T12:42:16;163.13;;;68.47;;
21170;SDS011;10743;52.160;20.910;2023-03-23T12:47:57;223.63;;;72.43;;
21170;SDS011;10743;52.160;20.910;2023-03-23T12:50:30;205.52;;;64.72;;
21170;SDS011;10743;52.160;20.910;2023-03-23T12:53:41;182.63;;;67.15;;
21170;SDS011;10743;52.160;20.910;2023-03-23T12:59:20;199.40;;;65.53;;
21170;SDS011;10743;52.160;20.910;2023-03-23T13:02:17;189.77;;;67.88;;
21170;SDS011;10743;52.160;20.910;2023-03-23T13:05:26;177.32;;;63.83;;
21170;SDS011;10743;52.160;20.910;2023-03-23T13:11:03;222.52;;;63.88;;
21170;SDS011;10743;52.160;20.910;2023-03-23T13:13:55;213.30;;;62.72;;
21170;SDS011;10743;52.160;20.910;2023-03-23T13:16:35;215.70;;;62.78;;
21170;SDS011;10743;52.160;20.910;2023-03-23T13:19:28;213.98;;;62.75;;
21170;SDS011;10743;52.160;20.910;2023-03-23T13:22:35;214.05;;;63.17;;
21170;SDS011;10743;52.160;20.910;2023-03-23T13:25:08;199.73;;;61.97;;
21170;SDS011;10743;52.160;20.910;2023-03-23T13:27:55;191.45;;;62.25;;
21170;SDS011;10743;52.160;20.910;2023-03-23T13:30:24;195.20;;;61.05;;
21170;SDS011;10743;52.160;20.910;2023-03-23T13:32:51;211.95;;;61.92;;
21170;SDS011;10743;52.160;20.910;2023-03-23T13:35:20;214.00;;;61.80;;
21170;SDS011;10743;52.160;20.910;2023-03-23T13:37:48;216.15;;;62.55;;
21170;SDS011;10743;52.160;20.910;2023-03-23T13:40:26;215.18;;;62.88;;
21170;SDS011;10743;52.160;20.910;2023-03-23T13:42:55;216.23;;;63.20;;
21170;SDS011;10743;52.160;20.910;2023-03-23T13:45:35;213.65;;;62.30;;
21170;SDS011;10743;52.160;20.910;2023-03-23T13:50:57;213.48;;;63.33;;
21170;SDS011;10743;52.160;20.910;2023-03-23T13:53:45;212.88;;;64.30;;
21170;SDS011;10743;52.160;20.910;2023-03-23T13:56:15;218.75;;;66.65;;
21170;SDS011;10743;52.160;20.910;2023-03-23T14:01:56;227.18;;;63.83;;
21170;SDS011;10743;52.160;20.910;2023-03-23T14:07:52;205.25;;;62.45;;
21170;SDS011;10743;52.160;20.910;2023-03-23T14:10:40;212.70;;;62.20;;
21170;SDS011;10743;52.160;20.910;2023-03-23T14:13:38;238.23;;;72.95;;
21170;SDS011;10743;52.160;20.910;2023-03-23T14:18:58;233.30;;;69.13;;
21170;SDS011;10743;52.160;20.910;2023-03-23T14:21:39;231.73;;;69.63;;
21170;SDS011;10743;52.160;20.910;2023-03-23T14:24:10;221.88;;;66.93;;
21170;SDS011;10743;52.160;20.910;2023-03-23T14:26:40;236.95;;;70.55;;
21170;SDS011;10743;52.160;20.910;2023-03-23T14:29:09;241.90;;;78.03;;
21170;SDS011;10743;52.160;20.910;2023-03-23T14:31:38;229.55;;;70.13;;
21170;SDS011;10743;52.160;20.910;2023-03-23T14:34:19;230.98;;;70.60;;
21170;SDS011;10743;52.160;20.910;2023-03-23T14:36:47;214.02;;;68.30;;
21170;SDS011;10743;52.160;20.910;2023-03-23T14:39:24;206.60;;;63.47;;
21170;SDS011;10743;52.160;20.910;2023-03-23T14:41:57;217.38;;;64.93;;
21170;SDS011;10743;52.160;20.910;2023-03-23T14:44:41;216.30;;;65.65;;
21170;SDS011;10743;52.160;20.910;2023-03-23T14:47:16;217.40;;;64.05;;
21170;SDS011;10743;52.160;20.910;2023-03-23T14:49:57;246.48;;;92.53;;
21170;SDS011;10743;52.160;20.910;2023-03-23T14:52:26;220.98;;;63.80;;
21170;SDS011;10743;52.160;20.910;2023-03-23T14:54:54;224.43;;;64.35;;
21170;SDS011;10743;52.160;20.910;2023-03-23T14:57:39;221.35;;;63.72;;
21170;SDS011;10743;52.160;20.910;2023-03-23T15:00:27;215.38;;;64.32;;
21170;SDS011;10743;52.160;20.910;2023-03-23T15:02:59;229.48;;;66.15;;
21170;SDS011;10743;52.160;20.910;2023-03-23T15:05:29;229.93;;;66.45;;
21170;SDS011;10743;52.160;20.910;2023-03-23T15:11:21;222.32;;;62.63;;
21170;SDS011;10743;52.160;20.910;2023-03-23T15:13:55;225.20;;;66.60;;
21170;SDS011;10743;52.160;20.910;2023-03-23T15:16:29;222.25;;;63.85;;
21170;SDS011;10743;52.160;20.910;2023-03-23T15:18:59;207.68;;;64.72;;
21170;SDS011;10743;52.160;20.910;2023-03-23T15:21:33;196.80;;;64.13;;
21170;SDS011;10743;52.160;20.910;2023-03-23T15:24:01;211.63;;;69.85;;
21170;SDS011;10743;52.160;20.910;2023-03-23T15:26:45;208.45;;;63.33;;
21170;SDS011;10743;52.160;20.910;2023-03-23T15:31:42;203.68;;;66.40;;
21170;SDS011;10743;52.160;20.910;2023-03-23T15:34:19;203.65;;;64.88;;
21170;SDS011;10743;52.160;20.910;2023-03-23T15:36:58;198.15;;;64.03;;
21170;SDS011;10743;52.160;20.910;2023-03-23T15:39:30;188.88;;;66.18;;
21170;SDS011;10743;52.160;20.910;2023-03-23T15:41:58;198.43;;;62.47;;
21170;SDS011;10743;52.160;20.910;2023-03-23T15:44:27;185.05;;;62.75;;
21170;SDS011;10743;52.160;20.910;2023-03-23T15:47:12;207.65;;;62.53;;
21170;SDS011;10743;52.160;20.910;2023-03-23T15:49:44;197.95;;;62.35;;
21170;SDS011;10743;52.160;20.910;2023-03-23T15:52:12;211.23;;;62.70;;
21170;SDS011;10743;52.160;20.910;2023-03-23T15:54:45;213.13;;;63.95;;
21170;SDS011;10743;52.160;20.910;2023-03-23T15:57:13;217.65;;;63.92;;
21170;SDS011;10743;52.160;20.910;2023-03-23T15:59:39;221.20;;;63.80;;
21170;SDS011;10743;52.160;20.910;2023-03-23T16:02:08;215.13;;;62.72;;
21170;SDS011;10743;52.160;20.910;2023-03-23T16:04:45;218.88;;;63.70;;
21170;SDS011;10743;52.160;20.910;2023-03-23T16:07:13;215.85;;;63.25;;
21170;SDS011;10743;52.160;20.910;2023-03-23T16:09:41;217.63;;;63.10;;
21170;SDS011;10743;52.160;20.910;2023-03-23T16:12:09;217.82;;;64.28;;
21170;SDS011;10743;52.160;20.910;2023-03-23T16:14:39;222.82;;;66.05;;
21170;SDS011;10743;52.160;20.910;2023-03-23T16:17:09;226.65;;;65.95;;
21170;SDS011;10743;52.160;20.910;2023-03-23T16:19:41;222.82;;;64.47;;
21170;SDS011;10743;52.160;20.910;2023-03-23T16:22:08;227.63;;;66.72;;
21170;SDS011;10743;52.160;20.910;2023-03-23T16:24:35;226.23;;;66.63;;
21170;SDS011;10743;52.160;20.910;2023-03-23T16:27:04;218.73;;;65.38;;
21170;SDS011;10743;52.160;20.910;2023-03-23T16:29:31;225.70;;;64.60;;
21170;SDS011;10743;52.160;20.910;2023-03-23T16:32:18;220.05;;;62.63;;
21170;SDS011;10743;52.160;20.910;2023-03-23T16:34:45;217.57;;;62.38;;
21170;SDS011;10743;52.160;20.910;2023-03-23T16:37:12;213.30;;;63.28;;
21170;SDS011;10743;52.160;20.910;2023-03-23T16:39:39;222.93;;;63.45;;
21170;SDS011;10743;52.160;20.910;2023-03-23T16:42:06;222.88;;;62.80;;
21170;SDS011;10743;52.160;20.910;2023-03-23T16:44:33;224.68;;;63.75;;
21170;SDS011;10743;52.160;20.910;2023-03-23T16:47:00;202.25;;;61.30;;
21170;SDS011;10743;52.160;20.910;2023-03-23T16:49:27;225.82;;;64.05;;
21170;SDS011;10743;52.160;20.910;2023-03-23T16:51:54;228.05;;;64.40;;